Time;durP1;ratioP1;P1;durP2;ratioP2;P2;SDS_P1;SDS_P2;PMS_P1;PMS_P2;Temp;Humidity;BMP_temperature;BMP_pressure;BME280_temperature;BME280_humidity;BME280_pressure;Samples;Min_cycle;Max_cycle;Signal;HPM_P1;HPM_P2
2023/08/12 00:00:24;;;;;;;;;;;;;;;18.17;100.00;101717.97;4979609;28;20028;-87
2023/08/12 00:03:10;;;;;;;;;;;;;;;18.15;100.00;101720.72;4991505;28;19925;-86
2023/08/12 00:05:56;;;;;;;;;;;;;;;18.15;100.00;101711.84;4976481;28;20398;-85
2023/08/12 00:08:42;;;;;;;;;;;;;;;18.13;100.00;101714.63;4990655;28;20383;-85
2023/08/12 00:11:27;;;;;;;;;;;;;;;18.12;100.00;101712.03;4990575;28;20039;-85
2023/08/12 00:14:15;;;;;;;;;;;;;;;18.11;100.00;101715.66;4991017;28;20044;-84
2023/08/12 00:17:02;;;;;;;;;;;;;;;18.07;100.00;101720.38;4975373;28;19929;-85
2023/08/12 00:19:48;;;;;;;;;;;;;;;18.05;100.00;101715.09;4986602;28;19921;-85
2023/08/12 00:22:33;;;;;;;;;;;;;;;18.04;100.00;101717.88;4976246;28;20296;-84
2023/08/12 00:25:19;;;;;;;;;;;;;;;18.02;100.00;101720.63;4979634;28;19967;-84
2023/08/12 00:28:05;;;;;;;;;;;;;;;18.02;100.00;101717.94;4975490;28;20479;-85
2023/08/12 00:30:50;;;;;;;;;;;;;;;18.00;100.00;101703.81;4981438;28;19921;-86
2023/08/12 00:33:36;;;;;;;;;;;;;;;17.99;100.00;101702.09;4964776;28;19921;-86
2023/08/12 00:36:22;;;;;;;;;;;;;;;17.98;100.00;101710.22;4990752;28;19930;-86
2023/08/12 00:39:07;;;;;;;;;;;;;;;17.96;100.00;101710.31;4962492;28;20392;-85
2023/08/12 00:41:53;;;;;;;;;;;;;;;17.94;100.00;101709.56;4988165;28;19980;-86
2023/08/12 00:44:42;;;;;;;;;;;;;;;17.93;100.00;101694.44;4989348;28;19933;-85
2023/08/12 00:47:28;;;;;;;;;;;;;;;17.92;100.00;101690.00;4968765;28;20389;-84
2023/08/12 00:50:13;;;;;;;;;;;;;;;17.90;100.00;101689.25;4975218;28;20368;-84
2023/08/12 00:52:59;;;;;;;;;;;;;;;17.88;100.00;101692.03;4974149;28;20302;-84
2023/08/12 00:55:45;;;;;;;;;;;;;;;17.86;100.00;101691.28;4964866;28;19925;-85
2023/08/12 00:58:31;;;;;;;;;;;;;;;17.84;100.00;101695.00;4963534;28;19985;-85
2023/08/12 01:01:22;;;;;;;;;;;;;;;17.83;100.00;101690.59;4989613;28;19922;-86
2023/08/12 01:04:08;;;;;;;;;;;;;;;17.81;100.00;101692.53;4986653;28;19929;-86
2023/08/12 01:06:53;;;;;;;;;;;;;;;17.80;100.00;101690.81;4989840;28;19926;-87
2023/08/12 01:09:39;;;;;;;;;;;;;;;17.78;100.00;101690.91;4976060;28;19937;-86
2023/08/12 01:12:36;;;;;;;;;;;;;;;17.74;100.00;101682.19;4974094;28;20319;-86
2023/08/12 01:15:23;;;;;;;;;;;;;;;17.72;100.00;101684.13;4964158;28;19926;-85
2023/08/12 01:18:09;;;;;;;;;;;;;;;17.69;100.00;101678.09;4975292;28;19917;-85
2023/08/12 01:20:55;;;;;;;;;;;;;;;17.67;100.00;101670.16;4975064;28;19925;-85
2023/08/12 01:23:41;;;;;;;;;;;;;;;17.65;100.00;101672.03;4989624;28;20348;-85
2023/08/12 01:26:26;;;;;;;;;;;;;;;17.64;100.00;101670.34;4976952;28;20392;-85
2023/08/12 01:29:12;;;;;;;;;;;;;;;17.62;100.00;101681.16;4991905;28;20357;-86
2023/08/12 01:32:04;;;;;;;;;;;;;;;17.62;100.00;101674.94;4962017;28;19960;-85
2023/08/12 01:34:52;;;;;;;;;;;;;;;17.60;100.00;101664.31;4973836;28;19973;-85
2023/08/12 01:37:40;;;;;;;;;;;;;;;17.59;100.00;101667.09;4962583;28;19945;-85
2023/08/12 01:40:25;;;;;;;;;;;;;;;17.58;100.00;101654.66;4977065;28;19953;-85
2023/08/12 01:43:11;;;;;;;;;;;;;;;17.56;100.00;101662.78;4959652;28;19926;-85
2023/08/12 01:45:57;;;;;;;;;;;;;;;17.57;100.00;101652.94;4977085;28;20525;-85
2023/08/12 01:48:43;;;;;;;;;;;;;;;17.57;100.00;101655.59;4985801;28;20296;-85
2023/08/12 01:51:29;;;;;;;;;;;;;;;17.58;100.00;101651.97;4958275;28;19925;-84
2023/08/12 01:54:14;;;;;;;;;;;;;;;17.59;100.00;101648.38;4976475;28;19976;-85
2023/08/12 01:57:05;;;;;;;;;;;;;;;17.62;100.00;101637.44;4991403;28;19932;-85
2023/08/12 01:59:51;;;;;;;;;;;;;;;17.63;100.00;101631.13;4977437;28;20009;-85
2023/08/12 02:02:39;;;;;;;;;;;;;;;17.66;100.00;101628.28;4975319;28;20008;-84
2023/08/12 02:05:25;;;;;;;;;;;;;;;17.69;100.00;101621.88;4971223;28;19929;-84
2023/08/12 02:08:11;;;;;;;;;;;;;;;17.70;100.00;101632.47;4971965;28;19939;-85
2023/08/12 02:10:57;;;;;;;;;;;;;;;17.71;100.00;101623.47;4989709;28;20546;-85
2023/08/12 02:13:42;;;;;;;;;;;;;;;17.73;100.00;101620.69;4970772;28;19997;-85
2023/08/12 02:16:28;;;;;;;;;;;;;;;17.76;100.00;101620.53;4961078;28;19936;-85
2023/08/12 02:19:14;;;;;;;;;;;;;;;17.78;100.00;101622.13;4975738;28;20620;-85
2023/08/12 02:22:00;;;;;;;;;;;;;;;17.80;100.00;101615.84;4975571;28;19995;-84
2023/08/12 02:24:46;;;;;;;;;;;;;;;17.82;100.00;101614.75;4963277;28;19943;-85
2023/08/12 02:27:32;;;;;;;;;;;;;;;17.84;100.00;101618.22;4975477;28;20393;-84
2023/08/12 02:30:18;;;;;;;;;;;;;;;17.88;100.00;101613.50;4984784;28;19936;-85
2023/08/12 02:33:06;;;;;;;;;;;;;;;17.90;100.00;101606.22;4973867;28;19943;-84
2023/08/12 02:35:54;;;;;;;;;;;;;;;17.92;100.00;101606.97;4987643;28;19972;-84
2023/08/12 02:38:40;;;;;;;;;;;;;;;17.93;100.00;101600.69;4987369;28;19925;-84
2023/08/12 02:41:26;;;;;;;;;;;;;;;17.95;100.00;101596.09;4974858;28;19976;-84
2023/08/12 02:44:11;;;;;;;;;;;;;;;17.96;100.00;101589.75;4971576;28;19925;-85
2023/08/12 02:46:57;;;;;;;;;;;;;;;17.98;100.00;101590.50;4972716;28;19944;-84
2023/08/12 02:49:43;;;;;;;;;;;;;;;17.99;100.00;101583.34;4972993;28;19933;-84
2023/08/12 02:52:31;;;;;;;;;;;;;;;18.01;100.00;101582.28;4987870;28;19992;-84
2023/08/12 02:55:17;;;;;;;;;;;;;;;18.02;100.00;101578.66;4965458;28;19929;-84
2023/08/12 02:58:03;;;;;;;;;;;;;;;18.03;100.00;101569.66;4988547;28;19922;-85
2023/08/12 03:00:48;;;;;;;;;;;;;;;18.03;100.00;101569.66;4973720;28;19921;-85
2023/08/12 03:03:34;;;;;;;;;;;;;;;18.04;100.00;101567.84;4991733;28;20856;-83
2023/08/12 03:06:22;;;;;;;;;;;;;;;18.03;100.00;101563.44;4966243;28;19976;-84
2023/08/12 03:09:08;;;;;;;;;;;;;;;18.01;100.00;101568.03;4978417;28;19937;-84
2023/08/12 03:11:54;;;;;;;;;;;;;;;17.99;100.00;101568.16;4976752;28;19925;-84
2023/08/12 03:14:39;;;;;;;;;;;;;;;18.00;100.00;101567.19;4988424;28;20373;-85
2023/08/12 03:17:25;;;;;;;;;;;;;;;18.00;100.00;101569.88;4974008;28;19921;-84
2023/08/12 03:20:11;;;;;;;;;;;;;;;17.99;100.00;101556.56;4977508;28;20576;-84
2023/08/12 03:22:57;;;;;;;;;;;;;;;18.00;100.00;101551.13;4989693;28;19979;-83
2023/08/12 03:25:42;;;;;;;;;;;;;;;18.00;100.00;101542.19;4980344;28;19925;-84
2023/08/12 03:28:28;;;;;;;;;;;;;;;18.01;100.00;101542.13;4996341;28;19968;-84
2023/08/12 03:31:14;;;;;;;;;;;;;;;18.00;100.00;101537.72;4994880;28;20761;-84
2023/08/12 03:33:59;;;;;;;;;;;;;;;17.99;100.00;101533.31;4979359;28;20300;-84
2023/08/12 03:36:48;;;;;;;;;;;;;;;18.00;100.00;101540.41;4980911;28;19925;-84
2023/08/12 03:39:33;;;;;;;;;;;;;;;17.97;100.00;101532.53;4980026;28;20407;-84
2023/08/12 03:42:19;;;;;;;;;;;;;;;17.99;100.00;101541.38;4979650;28;20492;-84
2023/08/12 03:45:05;;;;;;;;;;;;;;;17.99;100.00;101541.38;4986513;28;20633;-85
2023/08/12 03:47:51;;;;;;;;;;;;;;;17.99;100.00;101543.16;4966592;28;19933;-84
2023/08/12 03:50:37;;;;;;;;;;;;;;;17.99;100.00;101541.38;4973056;28;19973;-84
2023/08/12 03:53:23;;;;;;;;;;;;;;;18.00;100.00;101536.84;4956999;28;20817;-85
2023/08/12 03:56:08;;;;;;;;;;;;;;;18.00;100.00;101532.34;4970693;28;19926;-84
2023/08/12 03:58:54;;;;;;;;;;;;;;;18.01;100.00;101528.72;4972722;28;20414;-84
2023/08/12 04:01:40;;;;;;;;;;;;;;;18.01;100.00;101534.06;4983138;28;20057;-84
2023/08/12 04:04:26;;;;;;;;;;;;;;;18.02;100.00;101535.78;4972251;28;20278;-83
2023/08/12 04:07:11;;;;;;;;;;;;;;;18.04;100.00;101533.00;4973350;28;19929;-84
2023/08/12 04:09:57;;;;;;;;;;;;;;;18.05;100.00;101538.28;4974169;28;20043;-85
2023/08/12 04:12:43;;;;;;;;;;;;;;;18.06;100.00;101536.47;4970978;28;19930;-83
2023/08/12 04:15:29;;;;;;;;;;;;;;;18.07;100.00;101537.34;4971388;28;19964;-84
2023/08/12 04:18:14;;;;;;;;;;;;;;;18.09;100.00;101532.72;4971901;28;19922;-85
2023/08/12 04:21:00;;;;;;;;;;;;;;;18.09;100.00;101530.06;4972408;28;19937;-84
2023/08/12 04:23:46;;;;;;;;;;;;;;;18.10;100.00;101531.78;4982849;28;19925;-84
2023/08/12 04:26:31;;;;;;;;;;;;;;;18.11;100.00;101533.47;4974708;28;20020;-84
2023/08/12 04:29:20;;;;;;;;;;;;;;;18.11;100.00;101529.00;4973974;28;19925;-84
2023/08/12 04:32:05;;;;;;;;;;;;;;;18.13;100.00;101521.69;4973222;28;20341;-84
2023/08/12 04:34:51;;;;;;;;;;;;;;;18.14;100.00;101523.41;4971238;28;19984;-84
2023/08/12 04:37:37;;;;;;;;;;;;;;;18.14;100.00;101517.22;4971339;28;20380;-84
2023/08/12 04:40:22;;;;;;;;;;;;;;;18.16;100.00;101515.28;4974456;28;20142;-85
2023/08/12 04:43:08;;;;;;;;;;;;;;;18.17;100.00;101507.16;4970842;28;19922;-84
2023/08/12 04:45:54;;;;;;;;;;;;;;;18.18;100.00;101508.88;4972954;28;19929;-84
2023/08/12 04:48:40;;;;;;;;;;;;;;;18.19;100.00;101507.03;4962602;28;20025;-84
2023/08/12 04:51:30;;;;;;;;;;;;;;;18.20;100.00;101500.72;4989870;28;20085;-84
2023/08/12 04:54:16;;;;;;;;;;;;;;;18.22;100.00;101492.56;4990036;28;19941;-85
2023/08/12 04:57:01;;;;;;;;;;;;;;;18.23;100.00;101495.16;4979531;28;19967;-84
2023/08/12 04:59:47;;;;;;;;;;;;;;;18.26;100.00;101486.88;4992580;28;20076;-83
2023/08/12 05:02:33;;;;;;;;;;;;;;;18.29;100.00;101477.78;4990500;28;19929;-83
2023/08/12 05:05:21;;;;;;;;;;;;;;;18.31;100.00;101470.53;4975798;28;19917;-84
2023/08/12 05:08:06;;;;;;;;;;;;;;;18.34;100.00;101470.28;4974986;28;20455;-84
2023/08/12 05:10:55;;;;;;;;;;;;;;;18.38;100.00;101470.94;4991099;28;19992;-84
2023/08/12 05:13:40;;;;;;;;;;;;;;;18.40;100.00;101469.88;4976447;28;20029;-85
2023/08/12 05:16:26;;;;;;;;;;;;;;;18.45;100.00;101453.47;4989739;28;19933;-85
2023/08/12 05:19:12;;;;;;;;;;;;;;;18.48;100.00;101460.44;4973995;28;19960;-84
2023/08/12 05:21:58;;;;;;;;;;;;;;;18.51;100.00;101461.09;4991360;28;19936;-85
2023/08/12 05:24:44;;;;;;;;;;;;;;;18.53;100.00;101453.78;4970379;28;20388;-83
2023/08/12 05:27:29;;;;;;;;;;;;;;;18.56;100.00;101452.72;4980369;28;20580;-83
2023/08/12 05:30:15;;;;;;;;;;;;;;;18.57;100.00;101459.78;4979791;28;19925;-84
2023/08/12 05:33:00;;;;;;;;;;;;;;;18.60;100.00;101454.22;4990682;28;19929;-84
2023/08/12 05:35:49;;;;;;;;;;;;;;;18.59;100.00;101453.34;4976341;28;19924;-83
2023/08/12 05:38:35;;;;;;;;;;;;;;;18.63;100.00;101453.16;4992949;28;19925;-85
2023/08/12 05:41:20;;;;;;;;;;;;;;;18.64;100.00;101461.09;4978237;28;20301;-84
2023/08/12 05:44:06;;;;;;;;;;;;;;;18.65;100.00;101456.59;4988296;28;20004;-84
2023/08/12 05:46:52;;;;;;;;;;;;;;;18.67;100.00;101457.31;4956102;28;19971;-85
2023/08/12 05:49:38;;;;;;;;;;;;;;;18.68;100.00;101451.88;4984905;28;19929;-84
2023/08/12 05:52:23;;;;;;;;;;;;;;;18.69;100.00;101445.53;4989581;28;21859;-85
2023/08/12 05:55:12;;;;;;;;;;;;;;;18.70;100.00;101444.56;4975439;28;19926;-84
2023/08/12 05:57:58;;;;;;;;;;;;;;;18.71;100.00;101440.94;4974070;28;20399;-85
2023/08/12 06:00:46;;;;;;;;;;;;;;;18.72;100.00;101441.78;4988171;28;21856;-85
2023/08/12 06:03:32;;;;;;;;;;;;;;;18.75;100.00;101460.34;4962047;28;20328;-84
2023/08/12 06:06:17;;;;;;;;;;;;;;;18.75;100.00;101452.31;4987655;28;19940;-84
2023/08/12 06:09:03;;;;;;;;;;;;;;;18.76;100.00;101442.41;4973864;28;19933;-85
2023/08/12 06:11:54;;;;;;;;;;;;;;;18.77;100.00;101447.69;4974211;28;20364;-85
2023/08/12 06:14:39;;;;;;;;;;;;;;;18.78;100.00;101440.50;4976262;28;20399;-84
2023/08/12 06:17:25;;;;;;;;;;;;;;;18.80;100.00;101439.41;4974095;28;20016;-85
2023/08/12 06:20:11;;;;;;;;;;;;;;;18.83;100.00;101443.69;4989301;28;19929;-84
2023/08/12 06:22:56;;;;;;;;;;;;;;;18.84;100.00;101451.63;4993671;28;19933;-84
2023/08/12 06:25:43;;;;;;;;;;;;;;;18.86;100.00;101438.97;4977980;28;20020;-85
2023/08/12 06:28:29;;;;;;;;;;;;;;;18.89;100.00;101437.88;4991336;28;20112;-85
2023/08/12 06:31:16;;;;;;;;;;;;;;;18.92;100.00;101436.81;4979893;28;19922;-85
2023/08/12 06:34:01;;;;;;;;;;;;;;;18.95;100.00;101439.28;4989561;28;19922;-84
2023/08/12 06:36:47;;;;;;;;;;;;;;;18.97;100.00;101443.56;4976268;28;19980;-84
2023/08/12 06:39:33;;;;;;;;;;;;;;;19.00;100.00;101445.16;4990745;28;20292;-84
2023/08/12 06:42:18;;;;;;;;;;;;;;;19.01;100.00;101441.50;4991956;28;19971;-86
2023/08/12 06:45:07;;;;;;;;;;;;;;;19.02;100.00;101437.00;4992220;28;21058;-84
2023/08/12 06:47:53;;;;;;;;;;;;;;;19.03;100.00;101439.63;4988879;28;19929;-84
2023/08/12 06:50:42;;;;;;;;;;;;;;;19.04;100.00;101437.78;4993417;28;19925;-85
2023/08/12 06:53:33;;;;;;;;;;;;;;;19.05;100.00;101442.19;4976654;28;20361;-85
2023/08/12 06:56:18;;;;;;;;;;;;;;;19.07;100.00;101434.91;4973935;28;19926;-83
2023/08/12 06:59:04;;;;;;;;;;;;;;;19.09;100.00;101435.63;4991303;28;19968;-84
2023/08/12 07:01:50;;;;;;;;;;;;;;;19.11;100.00;101431.88;4989787;28;19929;-79
2023/08/12 07:04:36;;;;;;;;;;;;;;;19.13;100.00;101429.94;4969847;28;19926;-77
2023/08/12 07:07:22;;;;;;;;;;;;;;;19.16;100.00;101428.84;4986013;28;19976;-77
2023/08/12 07:10:07;;;;;;;;;;;;;;;19.18;100.00;101415.31;4986856;28;20254;-78
2023/08/12 07:12:53;;;;;;;;;;;;;;;19.20;100.00;101414.25;4982453;28;19952;-77
2023/08/12 07:15:42;;;;;;;;;;;;;;;19.22;100.00;101406.06;4980081;28;19925;-75
2023/08/12 07:18:29;;;;;;;;;;;;;;;19.23;100.00;101397.06;4972487;28;19929;-77
2023/08/12 07:21:14;;;;;;;;;;;;;;;19.23;100.00;101373.75;4987866;28;20049;-76
2023/08/12 07:24:00;;;;;;;;;;;;;;;19.23;100.00;101395.22;4970269;28;19926;-76
2023/08/12 07:26:45;;;;;;;;;;;;;;;19.25;100.00;101403.16;4983782;28;20404;-77
2023/08/12 07:29:31;;;;;;;;;;;;;;;19.25;100.00;101404.03;4981956;28;19929;-78
2023/08/12 07:32:19;;;;;;;;;;;;;;;19.28;100.00;101389.50;4960782;28;19934;-77
2023/08/12 07:35:08;;;;;;;;;;;;;;;19.29;100.00;101403.78;4962023;28;19971;-77
2023/08/12 07:37:53;;;;;;;;;;;;;;;19.30;100.00;101409.06;4974625;28;19936;-79
2023/08/12 07:40:40;;;;;;;;;;;;;;;19.30;100.00;101403.69;4986679;28;19929;-79
2023/08/12 07:43:26;;;;;;;;;;;;;;;19.29;100.00;101396.63;4974991;28;19925;-77
2023/08/12 07:46:11;;;;;;;;;;;;;;;19.29;100.00;101402.00;4989306;28;20016;-79
2023/08/12 07:48:57;;;;;;;;;;;;;;;19.26;100.00;101396.81;4974608;28;21557;-79
2023/08/12 07:51:46;;;;;;;;;;;;;;;19.24;100.00;101409.50;4990254;28;19975;-79
2023/08/12 07:54:31;;;;;;;;;;;;;;;19.20;100.00;101403.50;4988523;28;20004;-79
2023/08/12 07:57:17;;;;;;;;;;;;;;;19.16;100.00;101404.69;4984151;28;19929;-79
2023/08/12 08:00:03;;;;;;;;;;;;;;;19.13;100.00;101404.94;4979036;28;20388;-78
2023/08/12 08:02:49;;;;;;;;;;;;;;;19.10;100.00;101408.69;4984608;28;19925;-78
2023/08/12 08:05:35;;;;;;;;;;;;;;;19.05;100.00;101399.25;4986140;28;19929;-77
2023/08/12 08:08:21;;;;;;;;;;;;;;;19.02;100.00;101397.69;4972103;28;20490;-77
2023/08/12 08:11:06;;;;;;;;;;;;;;;18.98;100.00;101390.78;4986991;28;20304;-78
2023/08/12 08:14:04;;;;;;;;;;;;;;;18.95;100.00;101401.75;4971138;28;19929;-77
2023/08/12 08:16:50;;;;;;;;;;;;;;;18.92;100.00;101400.13;4974594;28;19930;-79
2023/08/12 08:19:35;;;;;;;;;;;;;;;18.91;100.00;101397.56;4981650;28;19940;-78
2023/08/12 08:22:21;;;;;;;;;;;;;;;18.89;100.00;101380.72;4987083;28;20395;-78
2023/08/12 08:25:07;;;;;;;;;;;;;;;18.86;100.00;101379.13;4988840;28;20015;-77
2023/08/12 08:27:53;;;;;;;;;;;;;;;18.83;100.00;101390.91;4988895;28;19926;-78
2023/08/12 08:30:38;;;;;;;;;;;;;;;18.82;100.00;101386.53;4988694;28;20352;-77
2023/08/12 08:33:29;;;;;;;;;;;;;;;18.83;100.00;101390.91;4974583;28;19929;-79
2023/08/12 08:36:16;;;;;;;;;;;;;;;18.84;100.00;101386.41;4963682;28;19921;-80
2023/08/12 08:39:05;;;;;;;;;;;;;;;18.85;100.00;101393.50;4962882;28;19933;-79
2023/08/12 08:41:51;;;;;;;;;;;;;;;18.85;100.00;101386.28;4985543;28;20373;-79
2023/08/12 08:44:36;;;;;;;;;;;;;;;18.86;100.00;101374.59;4965981;28;19944;-81
2023/08/12 08:47:24;;;;;;;;;;;;;;;18.94;100.00;101378.53;4983246;28;19921;-80
2023/08/12 08:50:10;;;;;;;;;;;;;;;19.01;100.00;101379.81;4967752;28;19925;-80
2023/08/12 08:52:56;;;;;;;;;;;;;;;19.06;100.00;101380.38;4972923;28;19948;-81
2023/08/12 08:55:42;;;;;;;;;;;;;;;19.09;100.00;101382.84;4983030;28;19922;-78
2023/08/12 08:58:28;;;;;;;;;;;;;;;19.13;100.00;101384.31;4968497;28;20020;-81
2023/08/12 09:01:17;;;;;;;;;;;;;;;19.18;100.00;101385.81;4974129;28;19921;-80
2023/08/12 09:04:03;;;;;;;;;;;;;;;19.20;100.00;101389.22;4973854;28;19953;-81
2023/08/12 09:06:49;;;;;;;;;;;;;;;19.20;100.00;101391.91;4985277;28;19929;-85
2023/08/12 09:09:42;;;;;;;;;;;;;;;19.18;100.00;101393.84;4973079;28;19925;-80
2023/08/12 09:12:27;;;;;;;;;;;;;;;19.16;100.00;101382.38;4971178;28;19925;-80
2023/08/12 09:15:15;;;;;;;;;;;;;;;19.17;100.00;101384.09;4975732;28;19925;-79
2023/08/12 09:18:01;;;;;;;;;;;;;;;19.20;100.00;101391.91;4956586;28;19921;-79
2023/08/12 09:20:49;;;;;;;;;;;;;;;19.21;100.00;101388.25;4967333;28;19972;-79
2023/08/12 09:23:43;;;;;;;;;;;;;;;19.25;100.00;101389.75;4989583;28;19937;-80
2023/08/12 09:26:29;;;;;;;;;;;;;;;19.31;100.00;101404.53;4974583;28;20395;-81
2023/08/12 09:29:24;;;;;;;;;;;;;;;19.32;100.00;101396.38;4975352;28;20378;-81
2023/08/12 09:32:09;;;;;;;;;;;;;;;19.35;100.00;101392.59;4987849;28;19948;-81
2023/08/12 09:34:57;;;;;;;;;;;;;;;19.36;100.00;101392.50;4985396;28;20414;-80
2023/08/12 09:37:45;;;;;;;;;;;;;;;19.33;100.00;101384.66;4997113;28;19941;-82
2023/08/12 09:40:32;;;;;;;;;;;;;;;19.32;100.00;101406.25;4995817;28;19925;-83
2023/08/12 09:43:17;;;;;;;;;;;;;;;19.32;100.00;101395.50;4990893;28;19936;-80
2023/08/12 09:46:13;;;;;;;;;;;;;;;19.27;100.00;101393.16;4982541;28;20304;-81
2023/08/12 09:48:59;;;;;;;;;;;;;;;19.26;100.00;101375.34;4998805;28;20619;-81
2023/08/12 09:51:45;;;;;;;;;;;;;;;19.21;100.00;101375.69;4981266;28;19925;-81
2023/08/12 09:54:34;;;;;;;;;;;;;;;19.16;100.00;101379.72;4997391;28;19923;-84
2023/08/12 09:57:20;;;;;;;;;;;;;;;19.04;100.00;101397.53;4994080;28;19924;-81
2023/08/12 10:00:11;;;;;;;;;;;;;;;18.62;100.00;101403.19;4979123;28;19929;-81
2023/08/12 10:02:57;;;;;;;;;;;;;;;18.21;100.00;101402.44;4979884;28;19959;-87
2023/08/12 10:05:43;;;;;;;;;;;;;;;17.84;100.00;101408.44;5005792;28;19944;-86
2023/08/12 10:08:29;;;;;;;;;;;;;;;17.47;100.00;101420.66;5008401;28;19984;-87
2023/08/12 10:11:15;;;;;;;;;;;;;;;17.24;100.00;101425.69;4992934;28;19933;-87
2023/08/12 10:14:01;;;;;;;;;;;;;;;17.06;100.00;101434.91;4990115;28;19971;-89
2023/08/12 10:16:47;;;;;;;;;;;;;;;16.88;100.00;101428.88;4977297;28;19924;-87
2023/08/12 10:19:33;;;;;;;;;;;;;;;16.79;100.00;101432.97;4991927;28;19924;-88
2023/08/12 10:22:19;;;;;;;;;;;;;;;16.71;100.00;101417.41;4990936;28;19967;-85
2023/08/12 10:25:05;;;;;;;;;;;;;;;16.64;100.00;101419.63;4978754;28;19932;-89
2023/08/12 10:27:51;;;;;;;;;;;;;;;16.63;100.00;101414.34;4974992;28;19925;-89
2023/08/12 10:30:40;;;;;;;;;;;;;;;16.64;100.00;101419.63;4976505;28;19922;-86
2023/08/12 10:33:29;;;;;;;;;;;;;;;16.64;100.00;101413.41;4990809;28;19921;-87
2023/08/12 10:36:19;;;;;;;;;;;;;;;16.65;100.00;101415.97;4979155;28;19987;-89
2023/08/12 10:39:07;;;;;;;;;;;;;;;16.68;100.00;101426.47;4991210;28;20343;-88
2023/08/12 10:45:09;;;;;;;;;;;;;;;16.76;100.00;101412.63;4997957;28;19921;-87
2023/08/12 10:47:58;;;;;;;;;;;;;;;16.81;100.00;101415.03;4972766;28;20403;-88
2023/08/12 10:50:47;;;;;;;;;;;;;;;16.84;100.00;101418.34;4989205;28;19936;-86
2023/08/12 10:53:33;;;;;;;;;;;;;;;16.81;100.00;101423.03;4975672;28;19921;-88
2023/08/12 10:56:19;;;;;;;;;;;;;;;16.77;100.00;101419.69;4973699;28;20278;-86
2023/08/12 10:59:04;;;;;;;;;;;;;;;16.80;100.00;101416.84;4997782;28;20456;-86
2023/08/12 11:01:54;;;;;;;;;;;;;;;16.81;100.00;101421.25;5004486;28;19937;-86
2023/08/12 11:04:40;;;;;;;;;;;;;;;16.82;100.00;101427.44;4993234;28;20040;-87
2023/08/12 11:07:29;;;;;;;;;;;;;;;16.83;100.00;101422.00;4985724;28;20628;-86
2023/08/12 11:10:15;;;;;;;;;;;;;;;16.89;100.00;101418.06;4998089;28;19929;-87
2023/08/12 11:13:03;;;;;;;;;;;;;;;16.94;100.00;101417.78;4996871;28;20323;-86
2023/08/12 11:15:51;;;;;;;;;;;;;;;16.99;100.00;101415.66;4970794;28;19964;-85
2023/08/12 11:18:36;;;;;;;;;;;;;;;17.04;100.00;101418.94;4988543;28;19971;-86
2023/08/12 11:21:22;;;;;;;;;;;;;;;17.13;100.00;101428.19;4992376;28;20019;-85
2023/08/12 11:24:07;;;;;;;;;;;;;;;17.14;100.00;101421.88;4988598;28;20303;-86
2023/08/12 11:26:53;;;;;;;;;;;;;;;17.14;100.00;101413.84;5001469;28;19952;-85
2023/08/12 11:29:42;;;;;;;;;;;;;;;17.16;100.00;101414.59;5000125;28;20375;-86
2023/08/12 11:32:28;;;;;;;;;;;;;;;17.21;100.00;101417.00;5000443;28;19926;-84
2023/08/12 11:35:15;;;;;;;;;;;;;;;17.26;100.00;101416.72;4986785;28;20115;-84
2023/08/12 11:38:00;;;;;;;;;;;;;;;17.30;100.00;101412.84;4986498;28;19925;-86
2023/08/12 11:40:46;;;;;;;;;;;;;;;17.33;100.00;101405.50;4987016;28;19932;-85
2023/08/12 11:43:32;;;;;;;;;;;;;;;17.43;100.00;101408.41;4985905;28;20240;-84
2023/08/12 11:46:24;;;;;;;;;;;;;;;17.49;100.00;101401.81;4974874;28;19943;-85
2023/08/12 11:49:14;;;;;;;;;;;;;;;17.57;100.00;101406.66;4987850;28;19968;-84
2023/08/12 11:52:00;;;;;;;;;;;;;;;17.63;100.00;101408.94;4991500;28;19997;-84
2023/08/12 11:54:48;;;;;;;;;;;;;;;17.69;100.00;101413.03;5002390;28;19932;-83
2023/08/12 11:57:34;;;;;;;;;;;;;;;17.76;100.00;101407.16;4985073;28;20024;-83
2023/08/12 12:00:20;;;;;;;;;;;;;;;17.87;100.00;101408.25;4988862;28;19929;-83
2023/08/12 12:03:06;;;;;;;;;;;;;;;17.94;100.00;101408.69;4976820;28;19981;-82
2023/08/12 12:05:55;;;;;;;;;;;;;;;18.04;100.00;101413.31;4988138;28;20002;-83
2023/08/12 12:08:41;;;;;;;;;;;;;;;18.29;100.00;101403.63;4984925;28;19921;-82
2023/08/12 12:11:27;;;;;;;;;;;;;;;18.43;100.00;101412.53;4990057;28;19929;-85
2023/08/12 12:14:12;;;;;;;;;;;;;;;18.58;100.00;101408.75;4987157;28;19925;-84
2023/08/12 12:16:58;;;;;;;;;;;;;;;18.79;100.00;101405.50;5007886;28;20491;-85
2023/08/12 12:19:46;;;;;;;;;;;;;;;19.04;100.00;101401.09;5004516;28;19988;-84
2023/08/12 12:22:33;;;;;;;;;;;;;;;19.26;100.00;101413.81;4989378;28;19925;-82
2023/08/12 12:25:21;;;;;;;;;;;;;;;19.41;100.00;101410.94;4992193;28;20035;-83
2023/08/12 12:28:07;;;;;;;;;;;;;;;19.58;100.00;101400.75;4994782;28;20527;-84
2023/08/12 12:30:52;;;;;;;;;;;;;;;19.78;100.00;101407.34;5004750;28;19925;-84
2023/08/12 12:33:38;;;;;;;;;;;;;;;19.82;100.00;101403.41;4989861;28;19968;-84
2023/08/12 12:36:24;;;;;;;;;;;;;;;19.81;100.00;101410.63;5000606;28;19992;-85
2023/08/12 12:39:12;;;;;;;;;;;;;;;19.81;100.00;101405.25;4988838;28;20475;-85
2023/08/12 12:41:59;;;;;;;;;;;;;;;19.82;100.00;101406.09;4977657;28;19918;-85
2023/08/12 12:44:48;;;;;;;;;;;;;;;19.91;100.00;101412.63;4998504;28;19953;-84
2023/08/12 12:47:33;;;;;;;;;;;;;;;20.10;100.00;101405.88;5004254;28;19928;-83
2023/08/12 12:50:19;;;;;;;;;;;;;;;20.32;100.00;101407.75;5000674;28;20043;-82
2023/08/12 12:53:05;;;;;;;;;;;;;;;20.39;100.00;101405.41;4989837;28;19926;-83
2023/08/12 12:55:50;;;;;;;;;;;;;;;20.40;100.00;101412.50;4988335;28;21018;-84
2023/08/12 12:58:36;;;;;;;;;;;;;;;20.37;100.00;101410.91;5004374;28;20000;-85
2023/08/12 13:01:24;;;;;;;;;;;;;;;20.39;100.00;101411.66;4985924;28;19965;-84
2023/08/12 13:04:10;;;;;;;;;;;;;;;20.48;100.00;101405.53;4990650;28;19927;-84
2023/08/12 13:06:56;;;;;;;;;;;;;;;20.56;100.00;101418.41;4998474;28;19940;-84
2023/08/12 13:09:41;;;;;;;;;;;;;;;20.63;100.00;101402.63;4998250;28;19926;-83
2023/08/12 13:12:27;;;;;;;;;;;;;;;20.77;100.00;101409.59;4998723;28;19929;-84
2023/08/12 13:15:15;;;;;;;;;;;;;;;20.83;100.00;101409.09;4989441;28;19930;-83
2023/08/12 13:18:00;;;;;;;;;;;;;;;20.88;100.00;101416.84;4974497;28;19929;-83
2023/08/12 13:20:46;;;;;;;;;;;;;;;20.89;100.00;101413.16;5001910;28;19928;-84
2023/08/12 13:23:34;;;;;;;;;;;;;;;20.81;100.00;101420.97;4986437;28;20028;-82
2023/08/12 13:26:20;;;;;;;;;;;;;;;20.74;100.00;101420.59;4977646;28;19921;-82
2023/08/12 13:29:06;;;;;;;;;;;;;;;20.76;100.00;101419.47;4974173;28;19925;-82
2023/08/12 13:31:51;;;;;;;;;;;;;;;20.78;100.00;101427.44;4987932;28;19921;-82
2023/08/12 13:34:37;;;;;;;;;;;;;;;20.83;100.00;101425.25;4999253;28;19928;-83
2023/08/12 13:37:23;;;;;;;;;;;;;;;20.89;100.00;101429.31;4986175;28;19936;-83
2023/08/12 13:40:16;;;;;;;;;;;;;;;20.92;100.00;101437.13;5002830;28;19936;-82
2023/08/12 13:43:02;;;;;;;;;;;;;;;21.01;100.00;101439.09;5003275;28;19963;-83
2023/08/12 13:45:47;;;;;;;;;;;;;;;21.09;100.00;101437.59;5004893;28;19928;-83
2023/08/12 13:48:33;;;;;;;;;;;;;;;21.10;100.00;101447.38;4983651;28;19976;-83
2023/08/12 13:51:18;;;;;;;;;;;;;;;21.10;100.00;101439.31;4990468;28;19917;-84
2023/08/12 13:54:04;;;;;;;;;;;;;;;21.14;100.00;101446.16;5006845;28;19928;-83
2023/08/12 13:56:53;;;;;;;;;;;;;;;21.17;100.00;101448.59;5000393;28;19975;-82
2023/08/12 13:59:40;;;;;;;;;;;;;;;21.23;100.00;101441.84;5002503;28;19933;-81
2023/08/12 14:02:27;;;;;;;;;;;;;;;21.29;100.00;101442.22;4984821;28;20897;-82
2023/08/12 14:05:33;;;;;;;;;;;;;;;21.37;100.00;101443.41;4991267;28;19962;-87
2023/08/12 14:08:19;;;;;;;;;;;;;;;21.41;100.00;101455.66;4997728;28;19968;-83